Map Display - EGKK to LGKR
(last flight recorded 26-11-2020, 20:34 - Andrew Siddall)

Aircraft Weights    Units : Maximums
Passengers :   124  
Cargo : kg 3,800 kg
Suggested Fuel Load : kg 15,682 kg
 
     
 
Dry Operating : 27,448 kg    
Total Payload : 0 kg 15,643 kg
 
Take Off : 39,413 kg 58,105 kg
 
Expected Landing : 31,618 kg 46,720 kg

Andrew Siddall,  B73Q ,  G-BKYG,  .

Route Distance Previous
Flights
Average
Duration
Average
Fuel Flow
Average
Fuel Use
EGKK - Gatwick, London
LGKR - Ioannis Kapodistrias, Kerkira, Greece
1,090 nm 2 03:00 2,606 kg/h 7,795 kg

Current weather :-
2020/11/27 12:06
TAF EGKK 271059Z 2712/2818 06005KT 9999 SCT022 PROB40
TEMPO 2712/2721 6000 RADZ BKN008
BECMG 2718/2721 BKN012 PROB30
TEMPO 2721/2811 3000 RADZ BR BKN004
BECMG 2800/2803 6000 BKN006
BECMG 2811/2814 9999 NSW FEW010 PROB30
TEMPO 2814/2818 BKN006
2020/11/27 12:12
TAF LGKR 271100Z 2712/2812 VRB05KT 9999 FEW020 PROB30 2800/2805 5000 BR SCT008
BECMG 2807/2809 16010KT SCT020 SCT080

Back to Virtual Airline